METAR Data
IDs: Format: Raw Decoded Include TAF

Data at: 1235 UTC 17 Aug 2019

METAR for:KELA (Eagle Lake Arpt, TX, US)
Text:KELA 171215Z AUTO 00000KT 10SM SCT018 26/26 A2990 RMK AO2 T02630257
Temperature: 26.3°C ( 79°F)
Dewpoint: 25.7°C ( 78°F) [RH = 97%]
Pressure (altimeter):29.90 inches Hg (1012.6 mb)
Winds:calm
Visibility:10 or more sm (16+ km)
Ceiling:at least 12,000 feet AGL
Clouds: scattered clouds at 1800 feet AGL
QC Flag:automated observation with no human augmentation

TAF for:KELA (Eagle Lake Arpt, TX, US)
Text:No data found